createdAt,value
2018-10-04T00:04:52.880Z,5.43
2018-10-04T00:09:56.528Z,4.10
2018-10-04T00:15:00.169Z,4.37
2018-10-04T00:20:03.714Z,4.43
2018-10-04T00:25:07.499Z,4.17
2018-10-04T00:30:11.023Z,4.33
2018-10-04T00:35:14.672Z,3.93
2018-10-04T00:40:18.360Z,4.30
2018-10-04T00:45:23.046Z,3.30
2018-10-04T00:50:26.667Z,3.80
2018-10-04T00:55:30.243Z,3.63
2018-10-04T01:00:33.905Z,4.20
2018-10-04T01:05:37.534Z,3.63
2018-10-04T01:10:42.219Z,3.63
2018-10-04T01:15:46.694Z,3.70
2018-10-04T01:20:50.396Z,3.47
2018-10-04T01:25:54.112Z,3.00
2018-10-04T01:30:57.746Z,4.00
2018-10-04T01:36:01.290Z,3.73
2018-10-04T01:41:04.931Z,4.13
2018-10-04T01:46:08.500Z,4.27
2018-10-04T01:51:12.014Z,4.83
2018-10-04T01:56:15.654Z,4.50
2018-10-04T02:01:19.482Z,4.43
2018-10-04T02:06:23.034Z,4.23
2018-10-04T02:11:26.550Z,4.33
2018-10-04T02:16:31.187Z,4.23
2018-10-04T02:21:34.793Z,3.77
2018-10-04T02:26:38.523Z,3.80
2018-10-04T02:31:43.050Z,3.90
2018-10-04T02:36:46.617Z,3.70
2018-10-04T02:41:50.325Z,3.33
2018-10-04T02:46:53.860Z,3.30
2018-10-04T02:51:57.396Z,2.97
2018-10-04T02:57:01.922Z,3.07
2018-10-04T03:02:05.541Z,2.80
2018-10-04T03:07:09.115Z,3.30
2018-10-04T03:12:12.719Z,2.73
2018-10-04T03:17:16.383Z,3.10
2018-10-04T03:22:19.989Z,2.70
2018-10-04T03:27:24.205Z,3.23
2018-10-04T03:32:27.756Z,3.03
2018-10-04T03:37:31.372Z,3.00
2018-10-04T03:42:34.924Z,3.60
2018-10-04T03:47:38.522Z,2.90
2018-10-04T03:52:42.062Z,2.87
2018-10-04T03:57:45.677Z,3.60
2018-10-04T04:02:49.235Z,3.40
2018-10-04T04:07:53.244Z,3.03
2018-10-04T04:12:56.973Z,2.63
2018-10-04T04:18:00.521Z,2.97
2018-10-04T04:23:04.322Z,3.13
2018-10-04T04:28:07.962Z,3.23
2018-10-04T04:33:11.478Z,3.03
2018-10-04T04:38:15.082Z,2.63
2018-10-04T04:43:18.598Z,3.00
2018-10-04T04:48:22.246Z,2.77
2018-10-04T04:53:33.119Z,3.07
2018-10-04T04:58:36.638Z,2.77
2018-10-04T05:03:40.239Z,2.97
2018-10-04T05:08:43.783Z,3.23
2018-10-04T05:13:47.342Z,3.23
2018-10-04T05:18:50.857Z,4.73
2018-10-04T05:23:54.438Z,3.47
2018-10-04T05:28:58.158Z,3.17
2018-10-04T05:34:01.770Z,3.30
2018-10-04T05:39:06.100Z,3.50
2018-10-04T05:44:09.750Z,3.50
2018-10-04T05:49:13.471Z,3.13
2018-10-04T05:54:17.075Z,3.40
2018-10-04T05:59:20.709Z,3.47
2018-10-04T06:04:25.104Z,3.40
2018-10-04T06:09:28.761Z,3.90
2018-10-04T06:14:32.507Z,3.67
2018-10-04T06:19:37.146Z,3.33
2018-10-04T06:24:41.226Z,4.13
2018-10-04T06:29:45.062Z,5.10
2018-10-04T06:34:48.871Z,5.20
2018-10-04T06:39:52.659Z,10.20
2018-10-04T06:44:56.182Z,8.43
2018-10-04T06:50:00.025Z,5.43
2018-10-04T06:55:03.601Z,5.20
2018-10-04T07:00:08.224Z,5.83
2018-10-04T07:05:12.340Z,6.37
2018-10-04T07:10:15.961Z,6.17
2018-10-04T07:15:19.548Z,6.47
2018-10-04T07:20:23.157Z,7.17
2018-10-04T07:25:26.820Z,6.60
2018-10-04T07:30:30.454Z,6.57
2018-10-04T07:35:33.990Z,6.73
2018-10-04T07:40:37.670Z,7.20
2018-10-04T07:45:41.265Z,7.90
2018-10-04T07:50:44.876Z,7.50
2018-10-04T07:55:48.551Z,8.80
2018-10-04T08:00:52.254Z,8.23
2018-10-04T08:05:55.916Z,6.47
2018-10-04T08:10:59.389Z,5.70
2018-10-04T08:16:02.935Z,6.13
2018-10-04T08:21:06.619Z,5.90
2018-10-04T08:26:11.355Z,5.93
2018-10-04T08:31:15.069Z,5.63
2018-10-04T08:36:18.639Z,5.97
2018-10-04T08:41:23.322Z,5.37
2018-10-04T08:46:26.843Z,5.40
2018-10-04T08:51:35.512Z,5.47
2018-10-04T08:56:39.062Z,5.57
2018-10-04T09:01:42.740Z,6.30
2018-10-04T09:06:46.315Z,5.67
2018-10-04T09:11:49.841Z,5.00
2018-10-04T09:16:53.378Z,5.57
2018-10-04T09:21:57.035Z,5.43
2018-10-04T09:27:00.547Z,6.53
2018-10-04T09:32:04.273Z,5.40
2018-10-04T09:37:10.286Z,5.43
2018-10-04T09:42:13.975Z,6.10
2018-10-04T09:47:22.866Z,5.63
2018-10-04T09:52:26.510Z,6.00
2018-10-04T09:57:36.854Z,5.20
2018-10-04T10:03:13.855Z,5.13
2018-10-04T10:08:17.422Z,4.97
2018-10-04T10:13:21.038Z,5.53
2018-10-04T10:18:24.766Z,5.53
2018-10-04T10:23:28.314Z,5.43
2018-10-04T10:28:32.643Z,4.60
2018-10-04T10:33:36.315Z,3.77
2018-10-04T10:38:39.861Z,4.37
2018-10-04T10:43:43.383Z,3.70
2018-10-04T10:48:46.926Z,3.70
2018-10-04T10:53:50.445Z,3.20
2018-10-04T10:58:55.032Z,2.10
2018-10-04T11:03:58.623Z,3.10
2018-10-04T11:09:02.152Z,2.43
2018-10-04T11:14:05.695Z,2.60
2018-10-04T11:19:09.495Z,2.90
2018-10-04T11:24:13.086Z,1.10
2018-10-04T11:29:16.656Z,1.70
2018-10-04T11:34:20.285Z,1.70
2018-10-04T11:39:23.842Z,2.20
2018-10-04T11:44:30.222Z,2.23
2018-10-04T11:49:33.986Z,2.33
2018-10-04T11:54:38.575Z,2.40
2018-10-04T11:59:42.648Z,2.40
2018-10-04T12:04:46.332Z,1.90
2018-10-04T12:09:49.956Z,1.80
2018-10-04T12:14:53.586Z,2.50
2018-10-04T12:19:57.131Z,2.43
2018-10-04T12:25:00.861Z,1.90
2018-10-04T12:30:04.838Z,2.00
2018-10-04T12:35:08.575Z,1.53
2018-10-04T12:40:12.074Z,2.30
2018-10-04T12:45:19.095Z,2.60
2018-10-04T12:50:22.608Z,2.03
2018-10-04T12:55:26.459Z,1.80
2018-10-04T13:00:31.125Z,1.90
2018-10-04T13:05:34.721Z,2.10
2018-10-04T13:10:38.290Z,1.63
2018-10-04T13:15:41.906Z,1.70
2018-10-04T13:20:45.732Z,2.40
2018-10-04T13:25:49.306Z,2.50
2018-10-04T13:30:53.009Z,1.50
2018-10-04T13:35:56.602Z,1.47
2018-10-04T13:41:00.135Z,2.17
2018-10-04T13:46:03.813Z,1.60
2018-10-04T13:51:07.410Z,2.43
2018-10-04T13:56:11.082Z,8.03
2018-10-04T14:01:14.701Z,4.17
2018-10-04T14:06:18.452Z,2.43
2018-10-04T14:11:22.062Z,2.20
2018-10-04T14:16:25.726Z,2.30
2018-10-04T14:21:29.242Z,1.50
2018-10-04T14:26:35.163Z,2.37
2018-10-04T14:31:38.721Z,2.43
2018-10-04T14:36:42.331Z,1.93
2018-10-04T14:41:45.875Z,2.00
2018-10-04T14:46:49.495Z,1.47
2018-10-04T14:51:53.125Z,2.13
2018-10-04T14:56:57.833Z,1.90
2018-10-04T15:02:01.415Z,2.03
2018-10-04T15:07:07.023Z,1.80
2018-10-04T15:12:10.574Z,1.60
2018-10-04T15:17:14.144Z,1.30
2018-10-04T15:22:17.707Z,1.50
2018-10-04T15:27:21.270Z,8.30
2018-10-04T15:32:24.810Z,3.90
2018-10-04T15:37:28.399Z,9.97
2018-10-04T15:42:32.010Z,2.83
2018-10-04T15:47:35.574Z,1.70
2018-10-04T15:52:39.190Z,2.10
2018-10-04T15:57:42.829Z,3.40
2018-10-04T16:02:46.423Z,2.40
2018-10-04T16:07:49.938Z,2.83
2018-10-04T16:12:53.489Z,2.00
2018-10-04T16:17:57.038Z,3.10
2018-10-04T16:23:00.568Z,2.43
2018-10-04T16:28:04.096Z,1.80
2018-10-04T16:33:07.647Z,2.00
2018-10-04T16:38:14.153Z,2.03
2018-10-04T16:43:17.862Z,1.77
2018-10-04T16:48:21.490Z,1.80
2018-10-04T16:53:25.018Z,2.60
2018-10-04T16:58:28.689Z,4.10
2018-10-04T17:03:32.255Z,3.00
2018-10-04T17:08:35.909Z,2.70
2018-10-04T17:13:40.161Z,3.03
2018-10-04T17:18:43.795Z,2.97
2018-10-04T17:23:47.319Z,3.60
2018-10-04T17:28:50.842Z,3.57
2018-10-04T17:33:54.390Z,4.30
2018-10-04T17:38:58.187Z,4.07
2018-10-04T17:44:01.806Z,3.67
2018-10-04T17:49:05.346Z,3.47
2018-10-04T17:54:08.906Z,3.87
2018-10-04T17:59:16.985Z,3.60
2018-10-04T18:04:20.517Z,3.30
2018-10-04T18:09:24.059Z,4.37
2018-10-04T18:14:27.634Z,3.73
2018-10-04T18:19:31.231Z,7.83
2018-10-04T18:24:34.865Z,4.97
2018-10-04T18:29:38.376Z,5.13
2018-10-04T18:34:41.882Z,4.10
2018-10-04T18:39:45.468Z,5.07
2018-10-04T18:44:48.998Z,3.90
2018-10-04T18:49:52.526Z,3.57
2018-10-04T18:54:56.074Z,3.40
2018-10-04T18:59:59.718Z,3.57
2018-10-04T19:05:03.211Z,3.90
2018-10-04T19:10:06.894Z,4.50
2018-10-04T19:15:10.469Z,4.10
2018-10-04T19:20:14.016Z,4.03
2018-10-04T19:25:17.565Z,4.43
2018-10-04T19:30:21.206Z,4.33
2018-10-04T19:35:24.841Z,4.80
2018-10-04T19:40:28.466Z,5.57
2018-10-04T19:45:32.027Z,5.20
2018-10-04T19:50:35.603Z,6.43
2018-10-04T19:55:40.262Z,6.80
2018-10-04T20:00:44.019Z,6.70
2018-10-04T20:05:47.569Z,7.83
2018-10-04T20:10:51.233Z,7.20
2018-10-04T20:15:54.866Z,7.50
2018-10-04T20:20:58.424Z,7.40
2018-10-04T20:26:01.960Z,6.60
2018-10-04T20:31:05.579Z,6.80
2018-10-04T20:36:09.142Z,6.63
2018-10-04T20:41:12.706Z,6.83
2018-10-04T20:46:16.239Z,6.40
2018-10-04T20:51:19.876Z,7.40
2018-10-04T20:56:23.534Z,6.23
2018-10-04T21:01:27.071Z,6.07
2018-10-04T21:06:30.650Z,6.40
2018-10-04T21:11:34.163Z,6.10
2018-10-04T21:16:37.703Z,5.73
2018-10-04T21:21:41.245Z,5.57
2018-10-04T21:26:44.764Z,4.90
2018-10-04T21:31:48.294Z,4.50
2018-10-04T21:36:52.879Z,4.53
2018-10-04T21:41:56.703Z,4.37
2018-10-04T21:47:00.538Z,4.87
2018-10-04T21:52:04.138Z,5.60
2018-10-04T21:57:07.807Z,5.00
2018-10-04T22:02:11.355Z,5.23
2018-10-04T22:07:14.970Z,5.10
2018-10-04T22:12:18.575Z,4.90
2018-10-04T22:17:23.166Z,4.80
2018-10-04T22:22:27.742Z,4.70
2018-10-04T22:27:31.466Z,5.47
2018-10-04T22:32:35.023Z,4.63
2018-10-04T22:37:38.644Z,4.70
2018-10-04T22:42:42.314Z,4.50
2018-10-04T22:47:47.911Z,4.37
2018-10-04T22:52:51.609Z,3.50
2018-10-04T22:57:55.342Z,3.57
2018-10-04T23:02:59.091Z,3.97
2018-10-04T23:08:03.734Z,3.27
2018-10-04T23:13:07.332Z,3.90
2018-10-04T23:18:17.212Z,4.13
2018-10-04T23:23:28.438Z,6.70
2018-10-04T23:28:32.019Z,5.97
2018-10-04T23:33:36.042Z,6.73
2018-10-04T23:38:39.661Z,9.33
2018-10-04T23:43:43.436Z,7.13
2018-10-04T23:48:47.127Z,7.93
2018-10-04T23:53:50.682Z,9.67
2018-10-04T23:58:54.284Z,8.90
